Zook Spur, Iowa
Current Conditions -  °F | °C
As of 10:55 AM on Monday 22 Dec 2014 (Local Time) from KBNW Reporting Station
Haze Haze  
Wind Chill: 29°   Ceiling: 400
Heat Index: 37°   Visibility: 1.7mi
Dew Point: 37°   Wind: 14mph
Humidity: 100%   Direction: 140°SE
Pressure: 29.56"   Gusts: NA
Location:  41.9049°N, 93.9596°W
Report Text: KBNW 221655Z AUTO 14012KT 1 3/4SM BR OVC004 03/03 A2956 RMK AO2 P0002
Loading
Personal Weather Stations






























Interactive Weather Map New forecast layout! Learn more

10-Day Weather Forecast

Advertisements
Track Severe Weather on mobile